sensor_id;sensor_type;location;lat;lon;timestamp;P1;durP1;ratioP1;P2;durP2;ratioP2
50563;SDS011;36514;52.590;21.448;2023-08-21T07:37:23;1818.89;;;909.76;;
50563;SDS011;36514;52.590;21.448;2023-08-21T07:47:20;1818.84;;;909.71;;
50563;SDS011;36514;52.590;21.448;2023-08-21T08:26:18;1818.91;;;909.78;;
50563;SDS011;36514;52.590;21.448;2023-08-21T08:36:28;1818.95;;;909.82;;
50563;SDS011;36514;52.590;21.448;2023-08-21T08:46:30;1819.03;;;909.89;;
50563;SDS011;36514;52.590;21.448;2023-08-21T08:56:39;1818.95;;;909.82;;
50563;SDS011;36514;52.590;21.448;2023-08-21T09:06:38;1818.93;;;909.80;;
50563;SDS011;36514;52.590;21.448;2023-08-21T09:16:27;1818.93;;;909.80;;
50563;SDS011;36514;52.590;21.448;2023-08-21T09:26:22;1818.96;;;909.84;;
50563;SDS011;36514;52.590;21.448;2023-08-21T09:36:34;1310.04;;;647.02;;
50563;SDS011;36514;52.590;21.448;2023-08-21T09:46:38;1818.90;;;909.77;;
50563;SDS011;36514;52.590;21.448;2023-08-21T09:56:25;1818.91;;;909.78;;
50563;SDS011;36514;52.590;21.448;2023-08-21T10:06:26;1818.96;;;909.84;;
50563;SDS011;36514;52.590;21.448;2023-08-21T10:16:27;1818.91;;;909.78;;
50563;SDS011;36514;52.590;21.448;2023-08-21T10:26:34;1818.89;;;909.76;;
50563;SDS011;36514;52.590;21.448;2023-08-21T10:46:52;1818.94;;;909.81;;
50563;SDS011;36514;52.590;21.448;2023-08-21T10:56:54;1818.95;;;909.82;;
50563;SDS011;36514;52.590;21.448;2023-08-21T11:06:56;1818.89;;;909.76;;
50563;SDS011;36514;52.590;21.448;2023-08-21T11:16:59;1818.91;;;909.78;;
50563;SDS011;36514;52.590;21.448;2023-08-21T11:27:05;1818.89;;;909.76;;
50563;SDS011;36514;52.590;21.448;2023-08-21T11:37:15;1818.92;;;909.79;;
50563;SDS011;36514;52.590;21.448;2023-08-21T11:47:33;1818.95;;;909.82;;
50563;SDS011;36514;52.590;21.448;2023-08-21T11:57:53;1818.86;;;909.74;;
50563;SDS011;36514;52.590;21.448;2023-08-21T12:08:12;1818.90;;;909.77;;
50563;SDS011;36514;52.590;21.448;2023-08-21T12:18:14;1818.98;;;909.85;;
50563;SDS011;36514;52.590;21.448;2023-08-21T12:28:11;1818.98;;;909.85;;
50563;SDS011;36514;52.590;21.448;2023-08-21T12:38:10;1818.92;;;909.79;;
50563;SDS011;36514;52.590;21.448;2023-08-21T12:48:08;1818.97;;;909.84;;
50563;SDS011;36514;52.590;21.448;2023-08-21T12:58:05;1818.95;;;909.82;;
50563;SDS011;36514;52.590;21.448;2023-08-21T13:08:03;1818.96;;;909.83;;
50563;SDS011;36514;52.590;21.448;2023-08-21T13:18:00;1818.96;;;909.84;;
50563;SDS011;36514;52.590;21.448;2023-08-21T13:27:54;1818.95;;;909.82;;
50563;SDS011;36514;52.590;21.448;2023-08-21T13:38:09;1818.93;;;909.80;;
50563;SDS011;36514;52.590;21.448;2023-08-21T13:48:04;1818.98;;;909.85;;
50563;SDS011;36514;52.590;21.448;2023-08-21T13:58:05;1819.04;;;909.90;;
50563;SDS011;36514;52.590;21.448;2023-08-21T14:08:05;1818.95;;;909.83;;
50563;SDS011;36514;52.590;21.448;2023-08-21T14:18:00;1818.93;;;909.80;;
50563;SDS011;36514;52.590;21.448;2023-08-21T14:27:57;1818.95;;;909.82;;
50563;SDS011;36514;52.590;21.448;2023-08-21T14:38:02;1818.95;;;909.82;;
50563;SDS011;36514;52.590;21.448;2023-08-21T14:48:17;1818.92;;;909.79;;
50563;SDS011;36514;52.590;21.448;2023-08-21T14:58:23;1818.95;;;909.83;;
50563;SDS011;36514;52.590;21.448;2023-08-21T15:08:33;1818.94;;;909.81;;
50563;SDS011;36514;52.590;21.448;2023-08-21T15:18:37;1818.89;;;909.76;;
50563;SDS011;36514;52.590;21.448;2023-08-21T15:28:55;1818.91;;;909.78;;
50563;SDS011;36514;52.590;21.448;2023-08-21T15:49:13;1818.90;;;909.77;;
50563;SDS011;36514;52.590;21.448;2023-08-21T15:59:32;1818.98;;;909.85;;
50563;SDS011;36514;52.590;21.448;2023-08-21T16:09:28;1666.79;;;838.87;;
50563;SDS011;36514;52.590;21.448;2023-08-21T16:19:26;1818.98;;;909.85;;
50563;SDS011;36514;52.590;21.448;2023-08-21T16:29:23;1818.92;;;909.79;;
50563;SDS011;36514;52.590;21.448;2023-08-21T16:39:18;1262.27;;;614.62;;
50563;SDS011;36514;52.590;21.448;2023-08-21T16:49:13;1297.31;;;629.90;;
50563;SDS011;36514;52.590;21.448;2023-08-21T16:59:09;756.66;;;453.46;;
50563;SDS011;36514;52.590;21.448;2023-08-21T17:09:06;1022.33;;;609.13;;
50563;SDS011;36514;52.590;21.448;2023-08-21T17:19:02;1081.33;;;573.57;;
50563;SDS011;36514;52.590;21.448;2023-08-21T17:28:58;1308.91;;;700.46;;
50563;SDS011;36514;52.590;21.448;2023-08-21T17:38:55;1298.30;;;691.15;;
50563;SDS011;36514;52.590;21.448;2023-08-21T17:48:54;1709.07;;;857.39;;
50563;SDS011;36514;52.590;21.448;2023-08-21T17:58:52;1850.69;;;926.48;;
50563;SDS011;36514;52.590;21.448;2023-08-21T18:08:49;1104.15;;;483.34;;
50563;SDS011;36514;52.590;21.448;2023-08-21T18:18:45;1077.51;;;613.99;;
50563;SDS011;36514;52.590;21.448;2023-08-21T18:28:42;1037.96;;;625.75;;
50563;SDS011;36514;52.590;21.448;2023-08-21T18:38:38;1057.73;;;655.67;;
50563;SDS011;36514;52.590;21.448;2023-08-21T18:48:36;1160.52;;;768.97;;
50563;SDS011;36514;52.590;21.448;2023-08-21T18:58:33;967.62;;;689.91;;
50563;SDS011;36514;52.590;21.448;2023-08-21T19:08:30;1199.67;;;709.95;;
50563;SDS011;36514;52.590;21.448;2023-08-21T19:18:27;1181.66;;;714.53;;
50563;SDS011;36514;52.590;21.448;2023-08-21T19:28:23;1026.56;;;627.25;;
50563;SDS011;36514;52.590;21.448;2023-08-21T19:38:20;1819.21;;;910.06;;
50563;SDS011;36514;52.590;21.448;2023-08-21T19:48:19;1819.13;;;909.99;;
50563;SDS011;36514;52.590;21.448;2023-08-21T19:58:15;1819.15;;;910.01;;
50563;SDS011;36514;52.590;21.448;2023-08-21T20:08:13;1819.14;;;910.00;;
50563;SDS011;36514;52.590;21.448;2023-08-21T20:18:11;1819.17;;;910.04;;
50563;SDS011;36514;52.590;21.448;2023-08-21T20:28:08;1819.24;;;910.09;;
